Time;durP1;ratioP1;P1;durP2;ratioP2;P2;SDS_P1;SDS_P2;PMS_P1;PMS_P2;Temp;Humidity;BMP_temperature;BMP_pressure;BME280_temperature;BME280_humidity;BME280_pressure;Samples;Min_cycle;Max_cycle;Signal;HPM_P1;HPM_P2
2022/12/01 00:01:15;;;;;;;5.85;2.67;;;;;;;;;;4952311;28;20036;-76
2022/12/01 00:03:41;;;;;;;8.35;3.03;;;6.90;99.90;;;;;;4951897;28;20110;-76
2022/12/01 00:06:10;;;;;;;4.80;2.55;;;6.70;99.90;;;;;;4951797;28;20178;-75
2022/12/01 00:08:35;;;;;;;4.82;2.90;;;6.90;99.90;;;;;;4951995;28;20082;-76
2022/12/01 00:11:10;;;;;;;5.93;2.47;;;6.70;99.90;;;;;;4951227;28;20047;-76
2022/12/01 00:13:36;;;;;;;4.00;2.40;;;7.20;99.90;;;;;;4951390;28;20030;-76
2022/12/01 00:16:29;;;;;;;5.18;2.97;;;6.60;99.90;;;;;;4934432;28;20016;-76
2022/12/01 00:18:55;;;;;;;9.90;3.25;;;;;;;;;;4948707;28;20412;-76
2022/12/01 00:21:23;;;;;;;4.15;2.38;;;6.80;99.90;;;;;;4951703;28;20369;-76
2022/12/01 00:23:51;;;;;;;6.90;3.00;;;6.80;99.90;;;;;;4950383;28;20488;-77
2022/12/01 00:26:18;;;;;;;5.70;2.90;;;6.90;99.90;;;;;;4951510;28;20047;-76
2022/12/01 00:28:51;;;;;;;11.30;3.28;;;6.60;99.90;;;;;;4951473;28;20043;-76
2022/12/01 00:31:17;;;;;;;6.00;2.70;;;6.80;99.90;;;;;;4951636;28;20512;-76
2022/12/01 00:33:43;;;;;;;6.55;3.90;;;;;;;;;;4951134;28;20035;-76
2022/12/01 00:36:09;;;;;;;5.35;3.92;;;;;;;;;;4933693;29;20030;-76
2022/12/01 00:38:35;;;;;;;3.25;2.35;;;6.90;99.90;;;;;;4951074;28;20031;-77
2022/12/01 00:41:02;;;;;;;5.00;2.80;;;6.70;99.90;;;;;;4951188;28;20078;-76
2022/12/01 00:43:28;;;;;;;9.32;2.80;;;;;;;;;;4950947;28;20035;-76
2022/12/01 00:45:55;;;;;;;10.50;3.28;;;6.70;99.90;;;;;;4951118;28;20023;-76
2022/12/01 00:48:21;;;;;;;6.43;3.67;;;;;;;;;;4950843;28;20176;-76
2022/12/01 00:50:49;;;;;;;4.53;2.83;;;6.60;99.90;;;;;;4951041;28;20271;-76
2022/12/01 00:53:14;;;;;;;;;;;6.70;99.90;;;;;;4951151;28;20054;-76
2022/12/01 00:55:40;;;;;;;7.22;3.80;;;;;;;;;;4951137;28;19906;-76
2022/12/01 00:58:06;;;;;;;10.48;3.05;;;;;;;;;;4950680;28;20864;-76
2022/12/01 01:00:32;;;;;;;10.85;3.28;;;;;;;;;;4951191;28;20038;-76
2022/12/01 01:02:58;;;;;;;7.85;3.95;;;;;;;;;;4950533;28;20023;-76
2022/12/01 01:05:24;;;;;;;13.25;4.18;;;;;;;;;;4950979;28;20495;-76
2022/12/01 01:07:50;;;;;;;7.78;3.30;;;;;;;;;;4932772;28;20035;-75
2022/12/01 01:10:16;;;;;;;9.30;4.25;;;;;;;;;;4947492;28;20132;-75
2022/12/01 01:12:42;;;;;;;6.65;3.10;;;;;;;;;;4940575;28;20027;-76
2022/12/01 01:15:08;;;;;;;5.63;3.55;;;;;;;;;;4950454;28;20086;-77
2022/12/01 01:17:34;;;;;;;5.30;3.00;;;;;;;;;;4950311;28;20057;-76
2022/12/01 01:20:00;;;;;;;5.15;3.05;;;;;;;;;;4959693;28;20598;-77
2022/12/01 01:22:26;;;;;;;6.13;2.80;;;;;;;;;;4953401;28;20066;-77
2022/12/01 01:24:52;;;;;;;4.07;2.20;;;;;;;;;;4950687;28;20086;-76
2022/12/01 01:27:18;;;;;;;5.28;2.90;;;;;;;;;;4950612;28;20564;-76
2022/12/01 01:29:44;;;;;;;4.55;2.85;;;;;;;;;;4950420;28;20031;-76
2022/12/01 01:32:10;;;;;;;4.18;2.90;;;;;;;;;;4950252;28;20058;-76
2022/12/01 01:34:36;;;;;;;6.32;2.80;;;;;;;;;;4950517;28;20027;-77
2022/12/01 01:37:01;;;;;;;7.05;2.60;;;6.80;99.90;;;;;;4950198;28;20027;-76
2022/12/01 01:39:27;;;;;;;5.35;2.58;;;;;;;;;;4950225;28;20035;-75
2022/12/01 01:41:53;;;;;;;7.50;3.00;;;;;;;;;;4950334;28;20042;-76
2022/12/01 01:44:45;;;;;;;8.00;2.95;;;6.80;99.90;;;;;;4950126;28;20027;-76
2022/12/01 01:47:12;;;;;;;7.88;3.25;;;6.90;99.90;;;;;;4938112;28;20440;-76
2022/12/01 01:49:39;;;;;;;5.20;2.88;;;6.90;99.90;;;;;;4949949;28;20086;-76
2022/12/01 01:52:05;;;;;;;3.17;2.38;;;;;;;;;;4950016;28;20031;-76
2022/12/01 01:54:37;;;;;;;5.10;2.80;;;6.90;99.90;;;;;;4950384;28;20074;-76
2022/12/01 01:57:05;;;;;;;7.72;2.78;;;6.90;99.90;;;;;;4950861;28;20027;-77
2022/12/01 01:59:39;;;;;;;7.50;2.95;;;6.80;99.90;;;;;;4950118;28;20035;-76
2022/12/01 02:02:07;;;;;;;4.63;3.33;;;6.80;99.90;;;;;;4950641;28;20027;-76
2022/12/01 02:04:39;;;;;;;5.05;2.83;;;6.80;99.90;;;;;;4950475;28;20063;-77
2022/12/01 02:07:10;;;;;;;7.93;3.20;;;6.50;99.90;;;;;;4932993;29;20043;-76
2022/12/01 02:09:35;;;;;;;7.20;3.60;;;6.90;99.90;;;;;;4951095;28;20020;-75
2022/12/01 02:12:32;;;;;;;6.65;3.70;;;6.70;99.90;;;;;;4959165;28;20405;-76
2022/12/01 02:15:51;;;;;;;4.05;2.60;;;6.70;99.90;;;;;;4950020;28;20027;-76
2022/12/01 02:18:26;;;;;;;6.10;3.45;;;6.70;99.90;;;;;;4909640;29;20032;-76
2022/12/01 02:20:52;;;;;;;5.03;2.80;;;;;;;;;;4908806;29;20024;-76
2022/12/01 02:24:06;;;;;;;6.45;3.20;;;6.80;99.90;;;;;;4909764;29;20207;-76
2022/12/01 02:26:53;;;;;;;8.30;3.50;;;7.30;99.90;;;;;;4853273;29;20030;-76
2022/12/01 02:29:56;;;;;;;9.10;3.45;;;6.70;99.90;;;;;;4837934;29;20594;-76
2022/12/01 02:32:42;;;;;;;5.15;2.97;;;6.70;99.90;;;;;;4848418;29;20116;-76
2022/12/01 02:35:08;;;;;;;7.07;2.80;;;;;;;;;;4868892;29;20540;-76
2022/12/01 02:37:52;;;;;;;8.73;3.88;;;6.70;99.90;;;;;;4866467;29;20052;-76
2022/12/01 02:40:18;;;;;;;7.10;3.78;;;;;;;;;;4852982;29;20045;-76
2022/12/01 02:43:05;;;;;;;5.18;2.40;;;6.60;99.90;;;;;;4848862;29;20457;-76
2022/12/01 02:45:50;;;;;;;7.60;2.65;;;6.60;99.90;;;;;;4852429;29;20121;-76
2022/12/01 02:48:26;;;;;;;8.13;4.53;;;6.30;99.90;;;;;;4856168;29;21337;-76
2022/12/01 02:50:53;;;;;;;9.70;4.10;;;6.50;99.90;;;;;;4867417;29;20064;-76
2022/12/01 02:53:19;;;;;;;7.20;4.22;;;;;;;;;;4856599;29;20078;-76
2022/12/01 02:55:47;;;;;;;5.00;2.83;;;6.40;99.90;;;;;;4856275;29;20029;-76
2022/12/01 02:58:14;;;;;;;5.15;2.50;;;6.50;99.90;;;;;;4939497;28;20047;-76
2022/12/01 03:00:45;;;;;;;6.70;3.87;;;6.40;99.90;;;;;;4953091;28;20023;-76
2022/12/01 03:03:39;;;;;;;4.78;2.63;;;6.40;99.90;;;;;;4953250;28;20606;-76
2022/12/01 03:06:26;;;;;;;7.70;3.60;;;6.50;99.90;;;;;;4952973;28;20027;-76
2022/12/01 03:09:29;;;;;;;5.15;2.92;;;6.20;99.90;;;;;;4953171;28;20404;-76
2022/12/01 03:12:03;;;;;;;5.68;2.72;;;6.30;99.90;;;;;;4953159;28;20023;-75
2022/12/01 03:14:58;;;;;;;8.77;3.75;;;6.60;99.90;;;;;;4954318;28;20430;-76
2022/12/01 03:17:29;;;;;;;6.15;2.80;;;6.50;99.90;;;;;;4952254;28;20054;-75
2022/12/01 03:20:01;;;;;;;10.50;3.15;;;6.40;99.90;;;;;;4952893;28;20031;-76
2022/12/01 03:22:42;;;;;;;6.70;3.60;;;6.30;99.90;;;;;;4952408;28;20516;-76
2022/12/01 03:25:09;;;;;;;7.45;3.67;;;6.50;99.90;;;;;;4952584;28;20031;-76
2022/12/01 03:27:40;;;;;;;6.70;4.28;;;6.40;99.90;;;;;;4952005;28;20057;-76
2022/12/01 03:30:09;;;;;;;5.20;2.97;;;6.50;99.90;;;;;;4952387;28;20032;-77
2022/12/01 03:32:47;;;;;;;7.05;2.70;;;6.40;99.90;;;;;;4952120;28;20035;-76
2022/12/01 03:35:22;;;;;;;5.32;2.70;;;6.40;99.90;;;;;;4952300;28;20512;-76
2022/12/01 03:38:01;;;;;;;5.22;2.47;;;6.40;99.90;;;;;;4952776;28;20034;-76
2022/12/01 03:40:29;;;;;;;3.42;2.33;;;6.50;99.90;;;;;;4951541;28;20025;-75
2022/12/01 03:42:59;;;;;;;6.75;3.40;;;6.40;99.90;;;;;;4952373;28;20146;-76
2022/12/01 03:45:49;;;;;;;4.72;2.00;;;6.30;99.90;;;;;;4934540;29;20031;-76
2022/12/01 03:48:15;;;;;;;7.20;3.70;;;6.50;99.90;;;;;;4951784;28;20049;-76
2022/12/01 03:50:53;;;;;;;8.57;3.08;;;6.40;99.90;;;;;;4952408;28;20105;-76
2022/12/01 03:53:26;;;;;;;5.72;2.45;;;6.40;99.90;;;;;;4952402;28;20051;-75
2022/12/01 03:56:00;;;;;;;6.45;3.08;;;6.40;99.90;;;;;;4952137;28;20023;-76
2022/12/01 03:58:33;;;;;;;6.10;3.30;;;6.50;99.90;;;;;;4951000;28;20054;-76
2022/12/01 04:00:59;;;;;;;10.25;3.22;;;;;;;;;;4951993;28;20035;-76
2022/12/01 04:03:25;;;;;;;3.55;2.33;;;6.30;99.90;;;;;;4951803;28;20034;-76
2022/12/01 04:05:51;;;;;;;5.50;3.25;;;;;;;;;;4952160;28;20039;-76
2022/12/01 04:08:17;;;;;;;6.32;3.13;;;6.60;99.90;;;;;;4951532;28;20031;-76
2022/12/01 04:10:43;;;;;;;4.68;2.13;;;;;;;;;;4952177;28;20042;-76
2022/12/01 04:13:21;;;;;;;7.00;3.33;;;6.70;99.90;;;;;;4951439;28;20126;-76
2022/12/01 04:15:48;;;;;;;4.60;2.50;;;6.70;99.90;;;;;;4951009;28;20501;-76
2022/12/01 04:18:13;;;;;;;5.78;2.70;;;6.50;99.90;;;;;;4951590;28;20114;-76
2022/12/01 04:20:42;;;;;;;6.40;2.97;;;;;;;;;;4951355;28;20118;-76
2022/12/01 04:23:07;;;;;;;5.63;2.75;;;6.00;99.90;;;;;;4951775;28;20095;-76
2022/12/01 04:25:33;;;;;;;5.75;2.95;;;;;;;;;;4951253;28;20118;-76
2022/12/01 04:27:59;;;;;;;4.90;3.58;;;;;;;;;;4951462;28;20039;-76
2022/12/01 04:30:25;;;;;;;4.82;2.50;;;6.00;99.90;;;;;;4951269;28;20544;-76
2022/12/01 04:32:51;;;;;;;5.80;3.20;;;;;;;;;;4951606;28;20031;-76
2022/12/01 04:35:17;;;;;;;8.70;3.75;;;;;;;;;;4951378;28;20051;-76
2022/12/01 04:37:42;;;;;;;7.28;2.30;;;6.10;99.90;;;;;;4951560;28;20027;-76
2022/12/01 04:40:08;;;;;;;6.15;3.50;;;;;;;;;;4950574;28;20027;-76
2022/12/01 04:42:34;;;;;;;3.95;2.60;;;;;;;;;;4951568;28;20051;-76
2022/12/01 04:45:00;;;;;;;5.85;2.33;;;6.30;99.90;;;;;;4950694;28;20023;-76
2022/12/01 04:47:26;;;;;;;3.50;1.95;;;;;;;;;;4951128;28;20480;-76
2022/12/01 04:49:53;;;;;;;4.53;2.65;;;;;;;;;;4950837;28;20057;-76
2022/12/01 04:52:19;;;;;;;11.82;3.55;;;;;;;;;;4951091;28;20085;-77
2022/12/01 04:54:45;;;;;;;4.82;3.50;;;;;;;;;;4950979;28;20039;-76
2022/12/01 04:57:10;;;;;;;2.58;1.85;;;6.30;99.90;;;;;;4950943;28;20046;-77
2022/12/01 04:59:36;;;;;;;7.25;2.42;;;;;;;;;;4950421;28;20035;-76
2022/12/01 05:02:02;;;;;;;6.72;2.45;;;;;;;;;;4951144;28;20031;-77
2022/12/01 05:04:30;;;;;;;3.20;2.20;;;;;;;;;;4951110;28;20031;-76
2022/12/01 05:06:56;;;;;;;4.25;1.95;;;;;;;;;;4950773;28;20125;-76
2022/12/01 05:09:22;;;;;;;6.32;2.33;;;;;;;;;;4950497;28;20671;-76
2022/12/01 05:11:48;;;;;;;8.10;2.95;;;;;;;;;;4950991;28;20031;-76
2022/12/01 05:14:14;;;;;;;5.53;1.92;;;;;;;;;;4950058;28;20031;-75
2022/12/01 05:16:40;;;;;;;3.80;2.35;;;;;;;;;;4951082;28;20035;-76
2022/12/01 05:21:50;;;;;;;5.85;2.88;;;6.20;99.90;;;;;;4951372;28;20125;-76
2022/12/01 05:24:17;;;;;;;4.25;2.65;;;6.30;99.90;;;;;;4952929;28;20059;-76
2022/12/01 05:26:43;;;;;;;7.32;2.88;;;6.20;99.90;;;;;;4951191;28;20031;-76
2022/12/01 05:29:10;;;;;;;5.43;2.70;;;6.30;99.90;;;;;;4950449;28;20041;-76
2022/12/01 05:31:36;;;;;;;6.15;2.17;;;6.40;99.90;;;;;;4950627;28;20042;-76
2022/12/01 05:34:01;;;;;;;7.22;3.28;;;6.30;99.90;;;;;;4944319;28;20027;-76
2022/12/01 05:36:27;;;;;;;6.72;2.90;;;6.20;99.90;;;;;;4950600;28;20028;-76
2022/12/01 05:38:53;;;;;;;5.47;2.97;;;;;;;;;;4950504;28;20042;-76
2022/12/01 05:41:19;;;;;;;10.48;3.55;;;6.40;99.90;;;;;;4950831;28;20027;-76
2022/12/01 05:43:45;;;;;;;6.05;2.17;;;;;;;;;;4949826;28;20559;-76
2022/12/01 05:46:11;;;;;;;5.18;2.70;;;6.20;99.90;;;;;;4950632;28;20023;-76
2022/12/01 05:48:36;;;;;;;6.93;3.10;;;6.20;99.90;;;;;;4950398;28;20027;-76
2022/12/01 05:51:14;;;;;;;5.53;2.45;;;6.30;99.90;;;;;;4950273;28;20090;-76
2022/12/01 05:53:40;;;;;;;6.10;2.67;;;;;;;;;;4932755;29;20059;-76
2022/12/01 05:56:07;;;;;;;7.93;3.05;;;6.30;99.90;;;;;;4950291;28;20034;-76
2022/12/01 05:58:33;;;;;;;7.07;3.53;;;6.20;99.90;;;;;;4950254;28;20027;-76
2022/12/01 06:00:59;;;;;;;3.67;2.45;;;;;;;;;;4950395;28;20334;-77
2022/12/01 06:03:26;;;;;;;5.15;3.38;;;6.20;99.90;;;;;;4945253;28;20051;-76
2022/12/01 06:05:52;;;;;;;7.05;3.33;;;;;;;;;;4945546;28;20036;-76
2022/12/01 06:08:18;;;;;;;6.82;2.83;;;;;;;;;;4947606;28;20047;-76
2022/12/01 06:10:45;;;;;;;6.78;3.78;;;6.20;99.90;;;;;;4950164;28;20674;-76
2022/12/01 06:13:11;;;;;;;4.15;2.95;;;6.10;99.90;;;;;;4947581;28;20565;-76
2022/12/01 06:15:37;;;;;;;5.15;2.50;;;;;;;;;;4948412;28;20027;-76
2022/12/01 06:18:03;;;;;;;8.38;4.30;;;6.40;99.90;;;;;;4950170;28;20455;-76
2022/12/01 06:20:28;;;;;;;4.68;2.80;;;;;;;;;;4946814;28;20391;-78
2022/12/01 06:22:54;;;;;;;7.05;2.88;;;;;;;;;;4951032;28;20050;-78
2022/12/01 06:25:21;;;;;;;7.75;2.75;;;;;;;;;;4952077;28;20138;-78
2022/12/01 06:27:46;;;;;;;4.22;1.90;;;6.30;99.90;;;;;;4948740;28;20039;-78
2022/12/01 06:30:12;;;;;;;8.95;4.05;;;6.20;99.90;;;;;;4951898;28;20023;-78
2022/12/01 06:32:38;;;;;;;10.73;3.60;;;;;;;;;;4950757;28;20043;-78
2022/12/01 06:35:04;;;;;;;7.20;3.67;;;;;;;;;;4949619;28;20026;-78
2022/12/01 06:37:30;;;;;;;4.72;2.88;;;;;;;;;;4950807;28;20042;-78
2022/12/01 06:39:56;;;;;;;8.90;4.00;;;;;;;;;;4950474;28;20400;-78
2022/12/01 06:42:22;;;;;;;4.95;2.13;;;;;;;;;;4948638;28;20045;-78
2022/12/01 06:44:48;;;;;;;6.72;3.40;;;;;;;;;;4951266;28;20497;-81
2022/12/01 06:47:14;;;;;;;12.77;3.65;;;;;;;;;;4952171;28;20757;-83
2022/12/01 06:49:40;;;;;;;6.40;2.58;;;;;;;;;;4951678;28;20054;-81
2022/12/01 06:52:06;;;;;;;12.10;4.03;;;6.10;99.90;;;;;;4950805;28;20100;-75
2022/12/01 06:54:32;;;;;;;8.68;4.22;;;;;;;;;;4952127;28;20070;-76
2022/12/01 06:56:58;;;;;;;9.15;3.83;;;;;;;;;;4951430;28;20038;-76
2022/12/01 06:59:24;;;;;;;6.70;3.67;;;;;;;;;;4951522;28;20043;-76
2022/12/01 07:01:50;;;;;;;5.10;3.42;;;6.00;99.90;;;;;;4950068;28;20038;-76
2022/12/01 07:04:16;;;;;;;9.32;2.78;;;;;;;;;;4951442;28;20027;-76
2022/12/01 07:06:42;;;;;;;9.60;3.22;;;6.00;99.90;;;;;;4951578;28;20023;-76
2022/12/01 07:09:08;;;;;;;9.75;3.50;;;;;;;;;;4951815;28;20400;-75
2022/12/01 07:11:35;;;;;;;10.15;3.60;;;;;;;;;;4951253;28;20030;-76
2022/12/01 07:14:01;;;;;;;9.90;4.35;;;;;;;;;;4950942;28;20031;-76
2022/12/01 07:16:27;;;;;;;6.43;3.47;;;6.00;99.90;;;;;;4951872;28;20122;-76
2022/12/01 07:18:53;;;;;;;9.75;4.13;;;;;;;;;;4950687;28;20603;-85
2022/12/01 07:21:19;;;;;;;7.70;3.10;;;;;;;;;;4933805;28;20675;-76
2022/12/01 07:23:45;;;;;;;8.63;3.55;;;;;;;;;;4954356;28;20019;-74
2022/12/01 07:26:16;;;;;;;4.65;2.95;;;6.30;99.90;;;;;;4950438;28;20012;-76
2022/12/01 07:28:43;;;;;;;7.90;3.58;;;6.00;99.90;;;;;;4950600;28;20031;-78
2022/12/01 07:31:14;;;;;;;10.07;3.90;;;6.20;99.90;;;;;;4951095;28;20111;-80
2022/12/01 07:33:40;;;;;;;7.45;4.60;;;6.30;99.90;;;;;;4949728;28;20043;-78
2022/12/01 07:36:06;;;;;;;8.82;3.70;;;4.30;99.90;;;;;;4950414;28;20433;-81
2022/12/01 07:38:34;;;;;;;7.15;3.33;;;6.80;99.90;;;;;;4950315;28;20058;-82
2022/12/01 07:41:12;;;;;;;5.72;2.65;;;6.30;99.90;;;;;;4950363;28;20043;-79
2022/12/01 07:43:39;;;;;;;6.72;3.50;;;;;;;;;;4944600;28;20027;-77
2022/12/01 07:46:12;;;;;;;5.35;3.45;;;6.20;99.90;;;;;;4946955;28;20060;-77
2022/12/01 07:48:39;;;;;;;4.13;2.80;;;6.10;99.90;;;;;;4948968;28;20460;-76
2022/12/01 07:51:07;;;;;;;11.47;3.17;;;6.20;99.90;;;;;;4951017;28;20031;-77
2022/12/01 07:53:32;;;;;;;;;;;6.30;99.90;;;;;;4950501;28;20090;-74
2022/12/01 07:55:59;;;;;;;8.52;3.30;;;;;;;;;;4950744;28;19954;-76
2022/12/01 07:58:25;;;;;;;8.73;3.33;;;;;;;;;;4950678;28;20467;-76
2022/12/01 08:00:51;;;;;;;6.53;3.22;;;6.20;99.90;;;;;;4950600;28;20035;-77
2022/12/01 08:03:17;;;;;;;10.55;3.78;;;;;;;;;;4950944;28;20621;-77
2022/12/01 08:05:43;;;;;;;7.03;3.92;;;;;;;;;;4950186;28;20118;-80
2022/12/01 08:08:09;;;;;;;5.78;3.42;;;;;;;;;;4950291;28;20102;-72
2022/12/01 08:10:35;;;;;;;5.93;3.50;;;6.20;99.90;;;;;;4950773;28;20046;-72
2022/12/01 08:13:01;;;;;;;8.32;3.97;;;;;;;;;;4947509;28;20024;-72
2022/12/01 08:15:27;;;;;;;8.98;3.38;;;;;;;;;;4949966;28;20366;-73
2022/12/01 08:17:53;;;;;;;8.18;4.30;;;;;;;;;;4949643;28;20045;-72
2022/12/01 08:20:20;;;;;;;10.55;4.72;;;;;;;;;;4950167;28;20023;-79
2022/12/01 08:22:46;;;;;;;23.58;3.58;;;;;;;;;;4949695;28;20054;-84
2022/12/01 08:25:12;;;;;;;6.95;3.20;;;;;;;;;;4950402;28;20050;-73
2022/12/01 08:27:38;;;;;;;9.50;4.10;;;;;;;;;;4949487;28;20540;-74
2022/12/01 08:30:04;;;;;;;7.30;3.90;;;6.70;99.90;;;;;;4950018;28;20095;-73
2022/12/01 08:32:30;;;;;;;6.28;3.47;;;;;;;;;;4949971;28;20110;-73
2022/12/01 08:34:56;;;;;;;8.65;3.40;;;;;;;;;;4949316;28;20124;-73
2022/12/01 08:37:22;;;;;;;9.50;3.60;;;6.60;99.90;;;;;;4950212;28;20028;-73
2022/12/01 08:39:48;;;;;;;11.38;4.88;;;;;;;;;;4932399;28;20034;-73
2022/12/01 08:42:14;;;;;;;8.23;4.10;;;;;;;;;;4949552;28;20106;-73
2022/12/01 08:44:40;;;;;;;8.07;4.13;;;;;;;;;;4949346;28;20046;-73
2022/12/01 08:47:06;;;;;;;10.73;3.88;;;;;;;;;;4950173;28;20074;-73
2022/12/01 08:49:32;;;;;;;7.05;3.33;;;;;;;;;;4949312;28;20428;-73
2022/12/01 08:51:58;;;;;;;5.30;2.92;;;;;;;;;;4949312;28;20111;-72
2022/12/01 08:54:24;;;;;;;7.97;4.18;;;;;;;;;;4949227;28;20571;-73
2022/12/01 08:56:50;;;;;;;11.60;3.67;;;;;;;;;;4948356;28;20516;-73
2022/12/01 08:59:16;;;;;;;7.97;3.95;;;;;;;;;;4949697;28;20032;-72
2022/12/01 09:01:51;;;;;;;6.80;3.28;;;;;;;;;;4948943;28;20031;-78
2022/12/01 09:04:21;;;;;;;6.40;3.67;;;6.70;99.90;;;;;;4949552;28;20031;-75
2022/12/01 09:06:49;;;;;;;10.32;5.25;;;7.30;99.90;;;;;;4949457;28;20033;-77
2022/12/01 09:09:19;;;;;;;;;;;6.70;99.90;;;;;;4950116;28;20485;-76
2022/12/01 09:11:46;;;;;;;7.35;2.80;;;6.70;99.90;;;;;;4949236;28;19996;-73
2022/12/01 09:14:13;;;;;;;5.75;2.88;;;6.80;99.90;;;;;;4949103;28;20051;-73
2022/12/01 09:16:39;;;;;;;5.50;4.05;;;6.70;99.90;;;;;;4950012;28;20039;-73
2022/12/01 09:19:05;;;;;;;9.93;3.25;;;6.70;99.90;;;;;;4953514;28;20499;-73
2022/12/01 09:21:33;;;;;;;7.55;4.10;;;6.80;99.90;;;;;;4949052;28;20037;-73
2022/12/01 09:24:00;;;;;;;6.03;3.63;;;6.80;99.90;;;;;;4949736;28;20042;-74
2022/12/01 09:26:26;;;;;;;7.30;3.40;;;7.40;99.90;;;;;;4949293;28;20109;-78
2022/12/01 09:28:56;;;;;;;8.48;5.00;;;6.70;99.90;;;;;;4959723;28;20057;-77
2022/12/01 09:31:22;;;;;;;12.00;5.18;;;6.90;99.90;;;;;;4949815;28;20019;-76
2022/12/01 09:33:48;;;;;;;7.00;3.75;;;;;;;;;;4948923;28;20114;-76
2022/12/01 09:36:14;;;;;;;9.35;3.10;;;;;;;;;;4949311;28;20023;-74
2022/12/01 09:38:40;;;;;;;13.63;4.40;;;;;;;;;;4946891;28;20507;-81
2022/12/01 09:41:14;;;;;;;5.35;3.47;;;7.00;99.90;;;;;;4948822;28;20114;-79
2022/12/01 09:43:44;;;;;;;8.48;4.32;;;6.80;99.90;;;;;;4948678;28;20027;-79
2022/12/01 09:46:16;;;;;;;9.93;4.40;;;7.00;99.90;;;;;;4948464;28;20035;-74
2022/12/01 09:48:45;;;;;;;5.38;3.22;;;6.90;99.90;;;;;;4947926;28;20050;-74
2022/12/01 09:51:23;;;;;;;11.80;4.13;;;6.90;99.90;;;;;;4948534;28;20493;-74
2022/12/01 09:53:53;;;;;;;7.55;3.15;;;7.10;99.90;;;;;;4947858;28;20544;-74
2022/12/01 09:56:38;;;;;;;5.72;3.38;;;7.30;99.90;;;;;;4949507;28;20034;-74
2022/12/01 09:59:06;;;;;;;11.95;3.75;;;7.40;99.90;;;;;;4952445;28;20057;-74
2022/12/01 10:01:42;;;;;;;10.95;4.50;;;7.60;99.90;;;;;;4952831;28;20023;-74
2022/12/01 10:04:23;;;;;;;10.35;3.42;;;7.50;99.90;;;;;;4952352;28;20115;-75
2022/12/01 10:07:12;;;;;;;6.85;4.32;;;7.60;99.90;;;;;;4952642;28;20110;-74
2022/12/01 10:10:01;;;;;;;11.05;4.28;;;7.70;99.90;;;;;;4944088;28;20047;-75
2022/12/01 10:12:32;;;;;;;9.52;4.18;;;7.70;99.90;;;;;;4951162;28;20047;-74
2022/12/01 10:15:07;;;;;;;9.13;4.97;;;8.00;99.90;;;;;;4952172;28;20027;-74
2022/12/01 10:17:51;;;;;;;10.07;4.15;;;8.10;99.90;;;;;;4952161;28;20034;-74
2022/12/01 10:20:34;;;;;;;10.02;4.80;;;8.20;99.90;;;;;;4952405;28;20028;-75
2022/12/01 10:23:40;;;;;;;7.68;4.18;;;8.50;99.90;;;;;;4952918;28;20066;-74
2022/12/01 10:26:13;;;;;;;8.77;4.07;;;8.90;99.90;;;;;;4950257;28;20110;-75
2022/12/01 10:28:45;;;;;;;6.45;3.40;;;9.10;99.50;;;;;;4951878;28;20298;-74
2022/12/01 10:31:19;;;;;;;8.57;4.68;;;8.90;99.90;;;;;;4952730;28;20552;-79
2022/12/01 10:34:09;;;;;;;9.40;3.72;;;9.00;98.90;;;;;;4952250;28;20039;-78
2022/12/01 10:36:35;;;;;;;10.65;3.53;;;;;;;;;;4952820;28;20059;-78
2022/12/01 10:39:03;;;;;;;7.18;4.28;;;8.90;99.10;;;;;;4951928;28;20504;-74
2022/12/01 10:41:32;;;;;;;8.65;3.85;;;8.80;99.30;;;;;;4950431;28;20090;-75
2022/12/01 10:43:59;;;;;;;6.82;4.45;;;8.50;98.80;;;;;;4948463;28;20031;-75
2022/12/01 10:46:51;;;;;;;7.72;3.85;;;8.30;99.90;;;;;;4952244;28;20031;-75
2022/12/01 10:49:18;;;;;;;4.40;3.25;;;6.90;99.90;;;;;;4951988;28;20070;-74
2022/12/01 10:51:50;;;;;;;5.40;3.60;;;7.90;99.90;;;;;;4951723;28;20028;-74
2022/12/01 10:54:16;;;;;;;10.65;4.32;;;8.00;99.90;;;;;;4951235;28;20142;-78
2022/12/01 10:56:46;;;;;;;10.25;4.63;;;8.10;99.90;;;;;;4952338;28;20019;-80
2022/12/01 10:59:37;;;;;;;7.65;4.85;;;8.20;99.90;;;;;;4934522;29;20042;-85
2022/12/01 11:02:13;;;;;;;6.72;3.65;;;8.40;99.90;;;;;;4951752;28;20050;-87
2022/12/01 11:04:44;;;;;;;8.02;4.40;;;8.90;99.20;;;;;;4951998;28;20039;-88
2022/12/01 11:07:28;;;;;;;8.50;4.78;;;9.20;97.80;;;;;;4949555;28;20051;-74
2022/12/01 11:10:20;;;;;;;13.25;5.22;;;9.50;97.00;;;;;;4951729;28;20031;-74
2022/12/01 11:12:54;;;;;;;4.15;3.75;;;9.60;96.30;;;;;;4951757;28;20054;-75
2022/12/01 11:15:41;;;;;;;11.75;5.78;;;10.00;97.40;;;;;;4951288;28;20058;-75
2022/12/01 11:18:32;;;;;;;7.57;4.65;;;9.90;95.70;;;;;;4943771;28;20082;-75
2022/12/01 11:21:15;;;;;;;11.77;4.45;;;9.70;94.60;;;;;;4951225;28;20115;-75
2022/12/01 11:23:46;;;;;;;9.20;5.35;;;9.20;95.10;;;;;;4950960;28;20031;-75
2022/12/01 11:26:14;;;;;;;8.68;4.20;;;8.80;99.90;;;;;;4953911;28;20605;-75
2022/12/01 11:28:55;;;;;;;8.02;3.85;;;8.90;96.70;;;;;;4951068;28;20031;-75
2022/12/01 11:31:23;;;;;;;9.70;5.15;;;8.90;99.90;;;;;;4950810;28;20093;-75
2022/12/01 11:33:52;;;;;;;13.50;5.72;;;8.80;98.30;;;;;;4950540;28;20047;-75
2022/12/01 11:36:20;;;;;;;13.10;5.40;;;8.50;99.90;;;;;;4951280;28;20047;-75
2022/12/01 11:38:46;;;;;;;11.10;4.65;;;8.80;97.00;;;;;;4950551;28;20026;-75
2022/12/01 11:41:27;;;;;;;7.32;4.80;;;8.80;97.50;;;;;;4950980;28;20027;-75
2022/12/01 11:43:52;;;;;;;5.07;3.72;;;8.80;99.90;;;;;;4950767;28;20055;-75
2022/12/01 11:46:29;;;;;;;5.75;3.85;;;8.70;96.90;;;;;;4950962;28;20027;-77
2022/12/01 11:48:59;;;;;;;3.88;3.40;;;8.60;99.90;;;;;;4950673;28;20067;-74
2022/12/01 11:51:30;;;;;;;5.20;3.20;;;8.60;99.90;;;;;;4950724;28;20107;-74
2022/12/01 11:54:22;;;;;;;6.07;3.38;;;8.40;99.90;;;;;;4951332;28;20055;-74
2022/12/01 11:56:49;;;;;;;4.78;2.90;;;8.20;97.70;;;;;;4950724;28;20893;-74
2022/12/01 11:59:25;;;;;;;4.25;3.42;;;7.90;99.90;;;;;;4934149;29;20085;-77
2022/12/01 12:02:03;;;;;;;6.85;2.90;;;;;;;;;;4950837;28;20043;-76
2022/12/01 12:04:29;;;;;;;5.40;2.88;;;;;;;;;;4951077;28;20038;-77
2022/12/01 12:06:55;;;;;;;6.03;3.53;;;;;;;;;;4950310;28;20027;-75
2022/12/01 12:09:48;;;;;;;7.82;3.58;;;8.70;99.90;;;;;;4950319;28;20031;-76
2022/12/01 12:12:29;;;;;;;4.13;2.95;;;8.80;94.10;;;;;;4891136;29;20048;-75
2022/12/01 12:15:38;;;;;;;6.78;3.58;;;8.50;97.50;;;;;;4874834;29;20080;-75
2022/12/01 12:18:04;;;;;;;5.10;2.55;;;;;;;;;;4872288;29;20047;-76
2022/12/01 12:20:43;;;;;;;5.63;2.88;;;8.50;93.60;;;;;;4870779;29;20247;-79
2022/12/01 12:23:09;;;;;;;5.40;3.22;;;;;;;;;;4868118;29;20041;-79
2022/12/01 12:25:56;;;;;;;4.72;2.75;;;8.40;99.90;;;;;;4872377;29;20043;-74
2022/12/01 12:28:22;;;;;;;6.10;2.70;;;;;;;;;;4871420;29;20057;-74
2022/12/01 12:31:02;;;;;;;3.70;2.40;;;8.30;93.40;;;;;;4872090;29;20443;-74
2022/12/01 12:34:09;;;;;;;2.83;2.38;;;8.30;99.90;;;;;;4872238;29;20033;-74
2022/12/01 12:36:35;;;;;;;4.45;2.65;;;8.20;99.90;;;;;;4853488;29;20064;-73
2022/12/01 12:39:48;;;;;;;4.00;2.55;;;8.30;92.50;;;;;;4852696;29;20535;-74
2022/12/01 12:42:35;;;;;;;4.32;2.40;;;8.20;91.20;;;;;;4847788;29;20046;-79
2022/12/01 12:45:20;;;;;;;4.13;2.55;;;8.10;91.30;;;;;;4851897;29;20022;-81
2022/12/01 12:48:06;;;;;;;2.67;2.47;;;8.00;92.00;;;;;;4851797;29;20339;-80
2022/12/01 12:50:49;;;;;;;4.40;2.80;;;7.90;91.80;;;;;;4871079;29;20033;-79
2022/12/01 12:53:20;;;;;;;11.02;2.30;;;7.90;92.10;;;;;;4886529;29;20432;-75
2022/12/01 12:55:49;;;;;;;4.55;2.83;;;7.80;95.00;;;;;;4898636;29;20080;-79
2022/12/01 12:58:25;;;;;;;6.82;3.72;;;7.90;91.50;;;;;;4924415;29;20441;-78
2022/12/01 13:00:59;;;;;;;2.03;1.88;;;8.20;99.90;;;;;;4908425;29;20036;-82
2022/12/01 13:03:43;;;;;;;4.05;2.80;;;8.20;91.60;;;;;;4908792;29;20453;-81
2022/12/01 13:06:23;;;;;;;4.80;2.65;;;8.10;90.10;;;;;;4908986;29;20040;-81
2022/12/01 13:09:04;;;;;;;5.28;2.72;;;8.20;89.90;;;;;;4907975;29;20156;-81
2022/12/01 13:11:43;;;;;;;3.90;2.08;;;8.10;88.50;;;;;;4909017;29;20067;-75
2022/12/01 13:14:34;;;;;;;4.30;2.60;;;8.10;88.20;;;;;;4949122;28;20035;-75
2022/12/01 13:17:36;;;;;;;5.57;2.63;;;8.20;95.10;;;;;;4949658;28;20031;-75
2022/12/01 13:20:04;;;;;;;3.42;2.20;;;8.00;91.10;;;;;;4906705;29;20042;-75
2022/12/01 13:22:33;;;;;;;2.42;2.22;;;8.10;88.20;;;;;;4908869;29;20052;-75
2022/12/01 13:24:59;;;;;;;5.10;2.50;;;;;;;;;;4908885;29;20047;-74
2022/12/01 13:27:31;;;;;;;4.07;2.00;;;8.00;87.00;;;;;;4907863;29;20054;-74
2022/12/01 13:29:57;;;;;;;2.63;1.98;;;8.50;96.50;;;;;;4908363;29;20035;-75
2022/12/01 13:32:36;;;;;;;2.53;2.33;;;8.10;86.90;;;;;;4907959;29;20032;-75
2022/12/01 13:35:06;;;;;;;4.95;2.80;;;8.00;93.00;;;;;;4908735;29;20514;-74
2022/12/01 13:37:35;;;;;;;2.97;2.30;;;7.90;87.00;;;;;;4907857;29;20028;-75
2022/12/01 13:40:30;;;;;;;3.58;2.30;;;8.00;87.90;;;;;;4908747;29;20067;-86
2022/12/01 13:43:00;;;;;;;10.75;2.55;;;7.90;87.90;;;;;;4892002;29;20138;-86
2022/12/01 13:45:31;;;;;;;2.80;2.20;;;7.80;88.40;;;;;;4907684;29;20024;-78
2022/12/01 13:47:58;;;;;;;2.40;2.20;;;7.60;91.60;;;;;;4908282;29;20048;-79
2022/12/01 13:50:42;;;;;;;4.05;2.95;;;7.70;88.90;;;;;;4907728;29;20044;-79
2022/12/01 13:53:36;;;;;;;4.32;2.00;;;7.60;89.10;;;;;;4907700;29;20063;-79
2022/12/01 13:56:02;;;;;;;6.00;3.08;;;7.30;96.60;;;;;;4909210;29;20421;-75